createdAt,value
2018-05-15T00:00:02.740Z,51.10
2018-05-15T00:02:36.103Z,51.50
2018-05-15T00:05:08.747Z,51.40
2018-05-15T00:07:42.158Z,51.60
2018-05-15T00:10:15.576Z,51.60
2018-05-15T00:12:48.182Z,51.60
2018-05-15T00:15:20.845Z,51.60
2018-05-15T00:17:54.227Z,51.60
2018-05-15T00:20:26.863Z,51.50
2018-05-15T00:22:59.471Z,52.30
2018-05-15T00:25:32.123Z,52.10
2018-05-15T00:28:04.772Z,52.60
2018-05-15T00:30:37.420Z,52.60
2018-05-15T00:33:10.788Z,52.80
2018-05-15T00:35:43.439Z,52.70
2018-05-15T00:38:16.027Z,52.80
2018-05-15T00:40:48.673Z,52.70
2018-05-15T00:43:21.280Z,52.90
2018-05-15T00:45:53.958Z,53.00
2018-05-15T00:48:26.558Z,53.00
2018-05-15T00:50:59.219Z,53.60
2018-05-15T00:53:31.821Z,53.40
2018-05-15T00:56:04.467Z,53.60
2018-05-15T00:58:37.068Z,53.40
2018-05-15T01:01:09.701Z,53.40
2018-05-15T01:03:42.309Z,53.30
2018-05-15T01:06:14.923Z,53.70
2018-05-15T01:08:47.541Z,53.50
2018-05-15T01:11:20.180Z,52.90
2018-05-15T01:13:52.777Z,52.90
2018-05-15T01:16:26.172Z,53.60
2018-05-15T01:18:58.793Z,53.60
2018-05-15T01:21:31.453Z,53.90
2018-05-15T01:24:04.052Z,53.90
2018-05-15T01:26:36.687Z,54.60
2018-05-15T01:29:09.276Z,53.60
2018-05-15T01:31:41.892Z,52.90
2018-05-15T01:34:14.482Z,53.90
2018-05-15T01:36:47.119Z,53.80
2018-05-15T01:39:19.732Z,53.70
2018-05-15T01:41:52.375Z,54.20
2018-05-15T01:44:24.984Z,54.30
2018-05-15T01:46:57.618Z,54.60
2018-05-15T01:49:30.210Z,55.10
2018-05-15T01:52:02.864Z,55.20
2018-05-15T01:54:35.475Z,55.20
2018-05-15T01:57:08.856Z,55.00
2018-05-15T01:59:41.510Z,55.00
2018-05-15T02:02:14.146Z,55.40
2018-05-15T02:04:46.747Z,55.30
2018-05-15T02:07:20.130Z,54.80
2018-05-15T02:09:52.719Z,54.70
2018-05-15T02:12:25.335Z,54.80
2018-05-15T02:14:57.930Z,55.30
2018-05-15T02:17:31.343Z,55.20
2018-05-15T02:20:04.711Z,55.90
2018-05-15T02:22:37.360Z,55.80
2018-05-15T02:25:09.958Z,56.20
2018-05-15T02:27:42.589Z,56.70
2018-05-15T02:30:15.196Z,56.70
2018-05-15T02:32:47.845Z,56.50
2018-05-15T02:35:20.487Z,56.80
2018-05-15T02:37:53.162Z,57.20
2018-05-15T02:40:25.771Z,57.10
2018-05-15T02:42:58.420Z,57.20
2018-05-15T02:45:31.027Z,57.20
2018-05-15T02:48:03.696Z,56.80
2018-05-15T02:50:36.292Z,55.90
2018-05-15T02:53:08.923Z,56.40
2018-05-15T02:55:41.536Z,57.30
2018-05-15T02:58:14.175Z,56.20
2018-05-15T03:00:46.770Z,56.10
2018-05-15T03:03:19.405Z,57.00
2018-05-15T03:05:52.004Z,57.20
2018-05-15T03:08:25.479Z,56.70
2018-05-15T03:10:58.083Z,56.70
2018-05-15T03:13:30.738Z,58.20
2018-05-15T03:16:03.371Z,57.10
2018-05-15T03:18:36.018Z,57.50
2018-05-15T03:21:08.614Z,58.70
2018-05-15T03:23:41.918Z,58.70
2018-05-15T03:26:14.515Z,59.10
2018-05-15T03:28:47.169Z,59.10
2018-05-15T03:31:19.772Z,58.30
2018-05-15T03:33:52.411Z,58.50
2018-05-15T03:36:25.010Z,58.80
2018-05-15T03:38:57.655Z,58.30
2018-05-15T03:41:30.259Z,59.80
2018-05-15T03:44:02.921Z,61.10
2018-05-15T03:46:35.530Z,60.00
2018-05-15T03:49:08.158Z,59.80
2018-05-15T03:51:40.752Z,60.40
2018-05-15T03:54:13.387Z,60.00
2018-05-15T03:56:46.763Z,60.30
2018-05-15T03:59:19.386Z,60.20
2018-05-15T04:02:04.759Z,59.70
2018-05-15T04:04:50.094Z,63.40
2018-05-15T04:07:34.595Z,62.50
2018-05-15T04:10:07.244Z,62.40
2018-05-15T04:12:39.843Z,63.50
2018-05-15T04:15:12.480Z,61.70
2018-05-15T04:17:45.093Z,61.50
2018-05-15T04:20:17.738Z,63.30
2018-05-15T04:22:50.355Z,64.40
2018-05-15T04:25:22.989Z,64.20
2018-05-15T04:27:55.606Z,67.00
2018-05-15T04:30:28.226Z,65.20
2018-05-15T04:33:00.821Z,65.00
2018-05-15T04:35:33.463Z,66.90
2018-05-15T04:38:06.212Z,69.10
2018-05-15T04:40:38.853Z,69.10
2018-05-15T04:43:11.476Z,69.70
2018-05-15T04:45:44.095Z,68.40
2018-05-15T04:48:16.699Z,70.50
2018-05-15T04:50:49.339Z,70.30
2018-05-15T04:53:21.939Z,70.90
2018-05-15T04:55:54.583Z,71.40
2018-05-15T04:58:27.183Z,72.00
2018-05-15T05:00:59.793Z,72.00
2018-05-15T05:03:32.378Z,70.60
2018-05-15T05:06:05.014Z,69.70
2018-05-15T05:08:37.607Z,70.30
2018-05-15T05:11:10.248Z,70.40
2018-05-15T05:13:43.158Z,70.10
2018-05-15T05:16:15.803Z,70.00
2018-05-15T05:18:49.244Z,68.70
2018-05-15T05:21:21.891Z,68.70
2018-05-15T05:23:54.502Z,69.30
2018-05-15T05:26:27.160Z,71.50
2018-05-15T05:28:59.779Z,69.50
2018-05-15T05:31:32.439Z,69.10
2018-05-15T05:34:05.046Z,70.40
2018-05-15T05:36:38.455Z,70.70
2018-05-15T05:39:11.054Z,70.70
2018-05-15T05:41:44.482Z,69.80
2018-05-15T05:44:17.988Z,69.10
2018-05-15T05:46:51.375Z,69.20
2018-05-15T05:49:23.980Z,69.20
2018-05-15T05:51:56.614Z,69.50
2018-05-15T05:54:29.220Z,69.50
2018-05-15T05:57:01.863Z,69.20
2018-05-15T05:59:35.227Z,69.80
2018-05-15T06:02:07.841Z,69.80
2018-05-15T06:04:40.443Z,68.20
2018-05-15T06:07:13.080Z,67.80
2018-05-15T06:09:46.448Z,67.00
2018-05-15T06:12:19.071Z,67.00
2018-05-15T06:14:51.672Z,66.50
2018-05-15T06:17:24.291Z,66.40
2018-05-15T06:19:56.886Z,64.60
2018-05-15T06:22:29.523Z,66.60
2018-05-15T06:25:02.907Z,64.20
2018-05-15T06:27:35.609Z,64.10
2018-05-15T06:30:08.183Z,63.40
2018-05-15T06:32:40.826Z,63.50
2018-05-15T06:35:14.344Z,63.20
2018-05-15T06:37:46.987Z,62.60
2018-05-15T06:40:19.621Z,61.60
2018-05-15T06:42:52.270Z,61.20
2018-05-15T06:45:24.868Z,60.90
2018-05-15T06:47:58.275Z,61.60
2018-05-15T06:50:31.643Z,60.70
2018-05-15T06:53:04.282Z,60.10
2018-05-15T06:55:37.642Z,60.00
2018-05-15T06:58:10.259Z,60.00
2018-05-15T07:00:42.856Z,60.40
2018-05-15T07:03:15.462Z,61.00
2018-05-15T07:05:48.831Z,61.30
2018-05-15T07:08:21.472Z,61.30
2018-05-15T07:10:54.842Z,60.30
2018-05-15T07:13:27.467Z,60.20
2018-05-15T07:16:00.835Z,60.30
2018-05-15T07:18:33.475Z,60.30
2018-05-15T07:21:06.833Z,59.00
2018-05-15T07:23:39.475Z,59.00
2018-05-15T07:26:12.075Z,58.60
2018-05-15T07:28:44.703Z,59.10
2018-05-15T07:31:17.286Z,59.80
2018-05-15T07:33:49.920Z,58.50
2018-05-15T07:36:22.507Z,57.70
2018-05-15T07:38:55.148Z,56.30
2018-05-15T07:41:27.741Z,55.50
2018-05-15T07:44:01.148Z,56.10
2018-05-15T07:46:33.765Z,56.20
2018-05-15T07:49:06.402Z,56.40
2018-05-15T07:51:39.758Z,54.40
2018-05-15T07:54:12.391Z,54.40
2018-05-15T07:56:44.989Z,54.30
2018-05-15T07:59:18.551Z,54.40
2018-05-15T08:01:51.144Z,54.40
2018-05-15T08:04:23.834Z,55.50
2018-05-15T08:06:56.410Z,54.10
2018-05-15T08:09:29.023Z,53.80
2018-05-15T08:12:01.615Z,54.00
2018-05-15T08:14:34.231Z,54.50
2018-05-15T08:17:06.833Z,54.30
2018-05-15T08:19:39.454Z,53.80
2018-05-15T08:22:12.115Z,53.30
2018-05-15T08:24:44.773Z,50.90
2018-05-15T08:27:17.374Z,50.10
2018-05-15T08:29:50.004Z,51.30
2018-05-15T08:32:22.611Z,49.70
2018-05-15T08:34:55.246Z,50.50
2018-05-15T08:37:27.902Z,51.10
2018-05-15T08:40:00.495Z,51.30
2018-05-15T08:42:33.110Z,49.30
2018-05-15T08:45:05.751Z,47.30
2018-05-15T08:47:38.387Z,46.80
2018-05-15T08:50:11.019Z,47.50
2018-05-15T08:52:43.611Z,46.70
2018-05-15T08:55:16.235Z,46.80
2018-05-15T08:57:48.828Z,47.80
2018-05-15T09:00:21.468Z,47.10
2018-05-15T09:02:54.079Z,46.60
2018-05-15T09:05:27.487Z,45.30
2018-05-15T09:08:00.082Z,45.30
2018-05-15T09:10:32.715Z,45.50
2018-05-15T09:13:05.311Z,46.00
2018-05-15T09:15:37.935Z,44.50
2018-05-15T09:18:10.534Z,46.00
2018-05-15T09:20:43.168Z,46.10
2018-05-15T09:23:15.769Z,44.80
2018-05-15T09:25:48.383Z,44.00
2018-05-15T09:28:21.009Z,45.20
2018-05-15T09:30:53.625Z,44.30
2018-05-15T09:33:26.216Z,43.30
2018-05-15T09:35:58.855Z,42.10
2018-05-15T09:38:31.462Z,43.00
2018-05-15T09:41:04.108Z,43.10
2018-05-15T09:46:44.085Z,40.50
2018-05-15T09:49:20.991Z,41.80
2018-05-15T09:51:53.627Z,41.80
2018-05-15T09:54:26.230Z,42.70
2018-05-15T09:56:58.868Z,42.50
2018-05-15T09:59:31.450Z,42.00
2018-05-15T10:02:04.107Z,41.60
2018-05-15T10:04:36.711Z,39.80
2018-05-15T10:07:10.114Z,40.50
2018-05-15T10:09:42.715Z,40.50
2018-05-15T10:12:16.113Z,39.10
2018-05-15T10:14:48.716Z,39.10
2018-05-15T10:17:22.128Z,38.70
2018-05-15T10:19:54.784Z,38.70
2018-05-15T10:22:27.360Z,38.70
2018-05-15T10:24:59.964Z,39.10
2018-05-15T10:27:32.610Z,37.40
2018-05-15T10:30:05.332Z,38.20
2018-05-15T10:32:37.882Z,37.80
2018-05-15T10:35:11.239Z,36.80
2018-05-15T10:37:43.855Z,36.40
2018-05-15T10:40:16.459Z,35.40
2018-05-15T10:42:49.099Z,35.80
2018-05-15T10:45:21.695Z,35.90
2018-05-15T10:47:54.306Z,36.10
2018-05-15T10:50:26.897Z,35.30
2018-05-15T10:52:59.537Z,35.60
2018-05-15T10:55:32.893Z,35.80
2018-05-15T10:58:05.537Z,35.80
2018-05-15T11:00:38.140Z,37.30
2018-05-15T11:03:17.404Z,36.90
2018-05-15T11:05:50.009Z,36.90
2018-05-15T11:08:22.647Z,35.60
2018-05-15T11:10:55.230Z,36.90
2018-05-15T11:13:28.643Z,38.70
2018-05-15T11:16:02.013Z,36.50
2018-05-15T11:18:41.946Z,36.50
2018-05-15T11:21:26.419Z,37.50
2018-05-15T11:27:14.249Z,37.90
2018-05-15T11:29:46.895Z,37.90
2018-05-15T11:32:19.492Z,38.20
2018-05-15T11:34:52.202Z,39.00
2018-05-15T11:37:24.810Z,40.20
2018-05-15T11:39:57.460Z,38.70
2018-05-15T11:42:30.209Z,40.20
2018-05-15T11:45:02.824Z,39.30
2018-05-15T11:47:36.502Z,38.70
2018-05-15T11:50:09.448Z,38.70
2018-05-15T11:52:42.001Z,38.60
2018-05-15T11:55:14.149Z,38.00
2018-05-15T11:57:46.827Z,38.70
2018-05-15T12:00:19.399Z,39.20
2018-05-15T12:02:52.002Z,38.10
2018-05-15T12:05:24.646Z,37.50
2018-05-15T12:07:57.286Z,36.90
2018-05-15T12:10:30.070Z,37.60
2018-05-15T12:13:03.435Z,37.70
2018-05-15T12:15:36.067Z,37.70
2018-05-15T12:18:08.665Z,37.70
2018-05-15T12:20:41.316Z,38.60
2018-05-15T12:23:13.911Z,39.00
2018-05-15T12:25:46.558Z,38.00
2018-05-15T12:28:19.165Z,38.00
2018-05-15T12:30:51.842Z,36.00
2018-05-15T12:33:24.449Z,37.20
2018-05-15T12:35:57.177Z,38.20
2018-05-15T12:38:29.757Z,38.50
2018-05-15T12:41:02.387Z,38.90
2018-05-15T12:43:34.991Z,39.60
2018-05-15T12:46:07.611Z,40.20
2018-05-15T12:48:40.295Z,39.00
2018-05-15T12:51:13.643Z,39.00
2018-05-15T12:53:46.237Z,39.00
2018-05-15T12:56:18.870Z,40.30
2018-05-15T12:58:51.477Z,41.00
2018-05-15T13:01:27.371Z,41.40
2018-05-15T13:03:59.971Z,42.50
2018-05-15T13:06:32.620Z,43.50
2018-05-15T13:09:06.063Z,43.20
2018-05-15T13:11:38.704Z,43.10
2018-05-15T13:14:11.319Z,46.30
2018-05-15T13:16:43.934Z,49.20
2018-05-15T13:19:16.536Z,49.60
2018-05-15T13:21:49.199Z,49.90
2018-05-15T13:24:21.832Z,49.20
2018-05-15T13:26:54.465Z,50.90
2018-05-15T13:29:27.181Z,50.80
2018-05-15T13:31:59.823Z,50.40
2018-05-15T13:34:32.427Z,47.10
2018-05-15T13:37:05.103Z,48.30
2018-05-15T13:39:38.484Z,48.90
2018-05-15T13:42:11.156Z,48.80
2018-05-15T13:44:43.767Z,48.20
2018-05-15T13:47:16.433Z,49.40
2018-05-15T13:49:49.069Z,48.60
2018-05-15T13:52:21.712Z,47.50
2018-05-15T13:54:54.327Z,47.60
2018-05-15T13:57:26.960Z,47.20
2018-05-15T13:59:59.591Z,46.80
2018-05-15T14:02:32.214Z,47.40
2018-05-15T14:05:04.805Z,48.10
2018-05-15T14:07:37.479Z,48.10
2018-05-15T14:10:10.129Z,48.40
2018-05-15T14:12:42.782Z,47.50
2018-05-15T14:15:15.384Z,46.70
2018-05-15T14:17:48.050Z,46.20
2018-05-15T14:20:20.655Z,46.90
2018-05-15T14:22:53.296Z,46.40
2018-05-15T14:25:26.658Z,49.60
2018-05-15T14:27:59.295Z,49.50
2018-05-15T14:30:31.883Z,52.10
2018-05-15T14:33:04.528Z,53.30
2018-05-15T14:35:37.127Z,50.50
2018-05-15T14:38:09.747Z,53.70
2018-05-15T14:40:42.344Z,57.10
2018-05-15T14:43:27.179Z,60.50
2018-05-15T14:45:59.791Z,64.10
2018-05-15T14:48:33.220Z,69.60
2018-05-15T14:54:17.868Z,73.70
2018-05-15T14:56:50.453Z,75.80
2018-05-15T14:59:23.086Z,77.40
2018-05-15T15:01:55.681Z,79.30
2018-05-15T15:04:28.294Z,80.90
2018-05-15T15:07:00.900Z,81.30
2018-05-15T15:09:33.516Z,80.40
2018-05-15T15:12:06.110Z,81.20
2018-05-15T15:14:38.727Z,80.80
2018-05-15T15:17:11.332Z,80.80
2018-05-15T15:19:44.728Z,82.40
2018-05-15T15:22:17.327Z,82.10
2018-05-15T15:24:49.960Z,81.90
2018-05-15T15:27:22.563Z,77.20
2018-05-15T15:29:55.196Z,76.70
2018-05-15T15:32:27.781Z,76.70
2018-05-15T15:35:00.411Z,75.50
2018-05-15T15:37:33.007Z,75.90
2018-05-15T15:40:05.732Z,74.20
2018-05-15T15:42:38.348Z,75.60
2018-05-15T15:45:11.837Z,73.00
2018-05-15T15:47:44.695Z,72.90
2018-05-15T15:50:24.647Z,74.10
2018-05-15T15:52:57.328Z,73.80
2018-05-15T15:55:30.781Z,73.80
2018-05-15T15:58:03.501Z,73.80
2018-05-15T16:00:36.246Z,75.20
2018-05-15T16:03:09.680Z,72.70
2018-05-15T16:05:42.302Z,72.50
2018-05-15T16:08:14.920Z,71.40
2018-05-15T16:10:48.336Z,71.30
2018-05-15T16:13:21.783Z,71.10
2018-05-15T16:15:54.453Z,70.90
2018-05-15T16:18:27.271Z,70.60
2018-05-15T16:21:00.261Z,70.90
2018-05-15T16:23:32.909Z,71.00
2018-05-15T16:26:05.555Z,70.60
2018-05-15T16:28:38.242Z,69.10
2018-05-15T16:31:10.902Z,69.80
2018-05-15T16:33:43.912Z,69.70
2018-05-15T16:36:16.558Z,70.30
2018-05-15T16:38:49.265Z,70.20
2018-05-15T16:41:21.904Z,70.40
2018-05-15T16:43:54.557Z,70.30
2018-05-15T16:46:27.970Z,67.80
2018-05-15T16:49:00.575Z,67.60
2018-05-15T16:51:33.211Z,69.10
2018-05-15T16:54:05.799Z,69.60
2018-05-15T16:56:39.204Z,69.40
2018-05-15T16:59:11.799Z,69.40
2018-05-15T17:01:45.447Z,72.90
2018-05-15T17:04:18.043Z,72.40
2018-05-15T17:06:50.659Z,73.10
2018-05-15T17:09:24.027Z,71.20
2018-05-15T17:11:56.714Z,71.10
2018-05-15T17:14:29.321Z,74.80
2018-05-15T17:17:01.971Z,74.00
2018-05-15T17:19:34.567Z,73.20
2018-05-15T17:22:07.246Z,72.90
2018-05-15T17:24:39.839Z,74.10
2018-05-15T17:27:12.451Z,72.50
2018-05-15T17:29:45.050Z,70.80
2018-05-15T17:32:17.675Z,70.50
2018-05-15T17:34:50.263Z,73.60
2018-05-15T17:37:22.891Z,72.00
2018-05-15T17:39:55.491Z,71.50
2018-05-15T17:42:28.179Z,71.30
2018-05-15T17:45:00.770Z,70.20
2018-05-15T17:47:33.392Z,70.50
2018-05-15T17:50:05.986Z,69.70
2018-05-15T17:52:38.700Z,74.90
2018-05-15T17:55:11.252Z,75.70
2018-05-15T17:57:43.890Z,78.30
2018-05-15T18:00:16.480Z,80.10
2018-05-15T18:02:49.115Z,81.70
2018-05-15T18:05:21.707Z,81.00
2018-05-15T18:07:54.381Z,80.90
2018-05-15T18:10:27.447Z,82.20
2018-05-15T18:13:00.095Z,81.80
2018-05-15T18:15:32.678Z,83.60
2018-05-15T18:18:05.291Z,84.00
2018-05-15T18:20:37.893Z,85.30
2018-05-15T18:23:10.527Z,84.90
2018-05-15T18:25:43.887Z,87.20
2018-05-15T18:28:16.539Z,87.10
2018-05-15T18:30:49.150Z,87.90
2018-05-15T18:33:21.786Z,86.40
2018-05-15T18:35:54.379Z,88.30
2018-05-15T18:38:27.026Z,87.70
2018-05-15T18:40:59.631Z,86.80
2018-05-15T18:43:32.263Z,86.30
2018-05-15T18:46:04.856Z,86.70
2018-05-15T18:48:37.523Z,84.70
2018-05-15T18:51:10.128Z,83.30
2018-05-15T18:53:42.767Z,84.40
2018-05-15T18:56:15.379Z,82.90
2018-05-15T18:58:48.054Z,83.30
2018-05-15T19:01:20.832Z,83.30
2018-05-15T19:03:53.833Z,83.40
2018-05-15T19:06:27.199Z,81.70
2018-05-15T19:08:59.901Z,81.70
2018-05-15T19:11:32.654Z,82.80
2018-05-15T19:14:05.656Z,82.00
2018-05-15T19:16:38.431Z,81.50
2018-05-15T19:19:11.183Z,80.70
2018-05-15T19:21:43.744Z,80.20
2018-05-15T19:24:16.406Z,80.20
2018-05-15T19:26:49.211Z,80.60
2018-05-15T19:29:21.991Z,80.80
2018-05-15T19:31:55.389Z,79.80
2018-05-15T19:34:28.991Z,79.90
2018-05-15T19:37:07.295Z,79.90
2018-05-15T19:39:44.142Z,79.70
2018-05-15T19:42:16.854Z,79.70
2018-05-15T19:44:49.599Z,80.20
2018-05-15T19:47:22.236Z,80.20
2018-05-15T19:49:54.881Z,80.00
2018-05-15T19:52:27.479Z,80.20
2018-05-15T19:55:00.875Z,82.20
2018-05-15T19:57:33.465Z,82.30
2018-05-15T20:00:06.107Z,82.90
2018-05-15T20:02:38.710Z,80.90
2018-05-15T20:05:11.339Z,80.90
2018-05-15T20:07:43.929Z,80.80
2018-05-15T20:10:16.556Z,81.80
2018-05-15T20:12:49.915Z,82.70
2018-05-15T20:15:22.675Z,82.70
2018-05-15T20:17:55.187Z,81.00
2018-05-15T20:20:27.836Z,81.00
2018-05-15T20:23:00.435Z,81.60
2018-05-15T20:25:33.069Z,81.60
2018-05-15T20:28:05.658Z,80.00
2018-05-15T20:30:38.291Z,80.50
2018-05-15T20:33:10.884Z,81.20
2018-05-15T20:35:44.293Z,81.00
2018-05-15T20:38:16.898Z,80.80
2018-05-15T20:40:49.567Z,81.00
2018-05-15T20:43:22.937Z,81.40
2018-05-15T20:45:55.604Z,81.30
2018-05-15T20:48:28.194Z,79.80
2018-05-15T20:51:00.822Z,78.90
2018-05-15T20:53:33.435Z,81.80
2018-05-15T20:56:06.061Z,80.40
2018-05-15T20:58:39.427Z,80.00
2018-05-15T21:01:12.051Z,80.00
2018-05-15T21:03:45.407Z,80.40
2018-05-15T21:06:18.034Z,80.30
2018-05-15T21:08:50.628Z,82.90
2018-05-15T21:11:23.259Z,83.10
2018-05-15T21:13:55.852Z,83.60
2018-05-15T21:16:28.476Z,83.50
2018-05-15T21:19:01.069Z,82.90
2018-05-15T21:21:33.685Z,82.70
2018-05-15T21:24:06.266Z,81.90
2018-05-15T21:26:38.935Z,83.00
2018-05-15T21:29:11.532Z,82.60
2018-05-15T21:31:44.188Z,82.70
2018-05-15T21:34:16.791Z,84.40
2018-05-15T21:36:49.469Z,84.50
2018-05-15T21:39:22.043Z,84.10
2018-05-15T21:41:54.688Z,84.70
2018-05-15T21:44:27.287Z,86.60
2018-05-15T21:47:00.242Z,86.80
2018-05-15T21:49:33.615Z,87.40
2018-05-15T21:52:06.254Z,87.30
2018-05-15T21:54:38.843Z,88.10
2018-05-15T21:57:11.475Z,89.50
2018-05-15T21:59:44.068Z,89.80
2018-05-15T22:02:16.712Z,88.80
2018-05-15T22:04:49.325Z,88.60
2018-05-15T22:07:21.957Z,88.10
2018-05-15T22:09:55.310Z,90.50
2018-05-15T22:12:39.869Z,90.50
2018-05-15T22:15:24.116Z,90.20
2018-05-15T22:18:09.226Z,90.50
2018-05-15T22:20:53.660Z,90.40
2018-05-15T22:23:26.558Z,89.70
2018-05-15T22:25:59.920Z,89.20
2018-05-15T22:28:32.538Z,89.20
2018-05-15T22:31:05.134Z,88.40
2018-05-15T22:33:37.757Z,87.20
2018-05-15T22:36:10.360Z,86.70
2018-05-15T22:38:42.988Z,87.10
2018-05-15T22:41:15.591Z,86.40
2018-05-15T22:43:48.224Z,86.00
2018-05-15T22:46:20.826Z,85.70
2018-05-15T22:48:53.500Z,84.60
2018-05-15T22:51:26.874Z,86.00
2018-05-15T22:53:59.519Z,85.80
2018-05-15T22:56:32.116Z,88.20
2018-05-15T22:59:04.750Z,89.00
2018-05-15T23:01:37.348Z,89.40
2018-05-15T23:04:09.987Z,90.30
2018-05-15T23:06:42.609Z,90.40
2018-05-15T23:09:15.266Z,90.30
2018-05-15T23:11:47.863Z,90.60
2018-05-15T23:14:20.499Z,90.60
2018-05-15T23:16:53.143Z,90.70
2018-05-15T23:19:25.788Z,90.90
2018-05-15T23:21:58.391Z,90.70
2018-05-15T23:24:31.775Z,91.60
2018-05-15T23:27:04.381Z,91.10
2018-05-15T23:29:37.028Z,91.60
2018-05-15T23:32:09.624Z,92.10
2018-05-15T23:34:42.266Z,92.20
2018-05-15T23:37:14.859Z,92.70
2018-05-15T23:39:48.258Z,92.60
2018-05-15T23:42:20.856Z,92.50
2018-05-15T23:44:53.471Z,92.30
2018-05-15T23:47:26.071Z,92.10
2018-05-15T23:49:58.689Z,92.70
2018-05-15T23:52:31.306Z,92.70
2018-05-15T23:55:04.049Z,92.30
2018-05-15T23:57:36.784Z,92.00
